»·PEaware :: EDG26 KSMF-KTEX

EDG26 :: KSMF-KTEX

FLIGHT INFORMATION

Flight Status: Arrived
Operator: Unknown
More flights by this operator :: More flights under this callsign
Pilot: Anonymous 7783 (7783)
Aircraft: CANADAIR CL-600 CHALLENGER
(CL60)
More flights by this aircraft type
Origin: KSMF Sacramento Intl
United States
Destination: KTEX Telluride Regl
United States
More flights between these airports :: More routes between these airports
Route: SCTWN4 RALEY JSICA MLF DVC
File this flight plan on PilotEdge
Remarks: Shared Cockpit
Altitude:
(Current/Filed)
37,000ft
Speed:
(Current/Filed)
484kts
Departed: 27-Aug-23 05:54 PM
Arrived: 27-Aug-23 07:27 PM
Distance/Time
Traveled:
645nm/1:32
Distance/Time
To Go:
Arrived

Flight Plot

Page will automatically refresh every two minutes.

Flight plan parsing failed; only flown route is shown


Map Options




Map Legend


Flown Route
Filed Route
Departure Airport
Arrival Airport
Navaid (VOR, NDB)
Fix

Horizontal Profiles

Position Reports

Time Latitude Longitude Heading Altitude Ground
Speed
27-Aug-23 17:32 38.681399 -121.597804 355 29ft 0kts
27-Aug-23 17:33 38.681399 -121.597804 355 29ft 0kts
27-Aug-23 17:34 38.681399 -121.597804 355 29ft 0kts
27-Aug-23 17:35 38.681399 -121.597804 355 29ft 0kts
27-Aug-23 17:36 38.681399 -121.597804 355 29ft 0kts
27-Aug-23 17:37 38.681399 -121.597804 355 29ft 0kts
27-Aug-23 17:38 38.681399 -121.597804 355 29ft 0kts
27-Aug-23 17:39 38.681399 -121.597804 355 29ft 0kts
27-Aug-23 17:40 38.681399 -121.597804 355 29ft 0kts
27-Aug-23 17:41 38.681399 -121.597804 355 29ft 0kts
27-Aug-23 17:42 38.681399 -121.597804 355 29ft 0kts
27-Aug-23 17:43 38.681399 -121.597804 355 29ft 0kts
27-Aug-23 17:44 38.681399 -121.597804 355 29ft 0kts
27-Aug-23 17:45 38.681399 -121.597804 355 29ft 0kts
27-Aug-23 17:46 38.681856 -121.598338 338 29ft 8kts
27-Aug-23 17:47 38.684606 -121.598850 0 29ft 11kts
27-Aug-23 17:48 38.690268 -121.598770 0 29ft 27kts
27-Aug-23 17:49 38.697947 -121.598618 0 29ft 24kts
27-Aug-23 17:50 38.705310 -121.598501 0 29ft 25kts
27-Aug-23 17:51 38.707197 -121.599843 271 29ft 0kts
27-Aug-23 17:52 38.706872 -121.601079 194 29ft 12kts
27-Aug-23 17:53 38.673951 -121.599503 157 1426ft 199kts
27-Aug-23 17:54 38.647861 -121.523317 106 5717ft 272kts
27-Aug-23 17:55 38.629907 -121.426491 90 9548ft 301kts
27-Aug-23 17:56 38.633458 -121.319842 90 10998ft 314kts
27-Aug-23 17:57 38.636483 -121.208550 91 15496ft 322kts
27-Aug-23 17:58 38.639390 -121.089923 91 19043ft 346kts
27-Aug-23 17:59 38.642257 -120.955627 91 20609ft 417kts
27-Aug-23 18:00 38.645393 -120.800778 90 22867ft 448kts
27-Aug-23 18:01 38.646121 -120.637353 93 25175ft 467kts
27-Aug-23 18:02 38.642244 -120.468535 93 27275ft 483kts
27-Aug-23 18:03 38.638324 -120.299938 94 28749ft 504kts
27-Aug-23 18:04 38.633844 -120.117076 95 30361ft 513kts
27-Aug-23 18:05 38.629092 -119.933627 94 31952ft 517kts
27-Aug-23 18:06 38.624004 -119.748511 94 33443ft 520kts
27-Aug-23 18:07 38.618252 -119.563003 94 35021ft 518kts
27-Aug-23 18:08 38.612430 -119.379721 94 36639ft 511kts
27-Aug-23 18:09 38.606449 -119.196962 95 37735ft 511kts
27-Aug-23 18:10 38.600314 -119.015185 95 38435ft 511kts
27-Aug-23 18:11 38.593874 -118.831487 95 38464ft 526kts
27-Aug-23 18:12 38.586831 -118.642289 95 38431ft 537kts
27-Aug-23 18:13 38.579357 -118.449837 95 38436ft 536kts
27-Aug-23 18:14 38.571630 -118.258922 95 38478ft 536kts
27-Aug-23 18:15 38.562036 -118.068504 96 38519ft 535kts
27-Aug-23 18:16 38.551896 -117.878798 96 38503ft 534kts
27-Aug-23 18:17 38.541475 -117.689778 96 38467ft 533kts
27-Aug-23 18:18 38.530796 -117.500027 96 38415ft 533kts
27-Aug-23 18:19 38.519837 -117.310862 96 38395ft 532kts
27-Aug-23 18:20 38.515085 -117.121867 92 38405ft 531kts
27-Aug-23 18:21 38.511279 -116.932239 92 38420ft 530kts
27-Aug-23 18:22 38.507138 -116.743794 93 38447ft 530kts
27-Aug-23 18:23 38.502407 -116.555265 92 38469ft 530kts
27-Aug-23 18:24 38.497429 -116.367032 92 38474ft 529kts
27-Aug-23 18:25 38.492191 -116.177852 93 38502ft 528kts
27-Aug-23 18:26 38.486663 -115.990016 93 38527ft 528kts
27-Aug-23 18:27 38.480881 -115.802687 93 38514ft 528kts
27-Aug-23 18:28 38.474794 -115.615149 93 38508ft 526kts
27-Aug-23 18:29 38.468444 -115.428922 93 38562ft 526kts
27-Aug-23 18:30 38.461810 -115.242129 94 38561ft 525kts
27-Aug-23 18:31 38.454856 -115.055718 93 38535ft 525kts
27-Aug-23 18:32 38.447597 -114.869147 93 38531ft 523kts
27-Aug-23 18:33 38.440082 -114.683499 93 38583ft 523kts
27-Aug-23 18:34 38.432245 -114.497581 93 38589ft 524kts
27-Aug-23 18:35 38.424190 -114.314199 94 38590ft 522kts
27-Aug-23 18:36 38.415822 -114.129202 94 38569ft 522kts
27-Aug-23 18:37 38.407090 -113.943699 94 38550ft 522kts
27-Aug-23 18:38 38.398084 -113.758183 93 38504ft 523kts
27-Aug-23 18:39 38.388756 -113.573212 93 38462ft 522kts
27-Aug-23 18:40 38.379118 -113.387717 93 38427ft 523kts
27-Aug-23 18:41 38.369232 -113.202176 94 38409ft 522kts
27-Aug-23 18:42 38.358783 -113.017824 96 38388ft 521kts
27-Aug-23 18:43 38.337837 -112.834338 98 38396ft 523kts
27-Aug-23 18:44 38.315955 -112.651265 98 38427ft 522kts
27-Aug-23 18:45 38.293712 -112.468673 98 38478ft 521kts
27-Aug-23 18:46 38.271196 -112.286022 99 38505ft 520kts
27-Aug-23 18:47 38.248501 -112.103743 98 38555ft 519kts
27-Aug-23 18:48 38.225553 -111.921601 98 38600ft 519kts
27-Aug-23 18:49 38.202390 -111.739889 98 38650ft 519kts
27-Aug-23 18:50 38.178981 -111.558758 98 38658ft 518kts
27-Aug-23 18:51 38.155243 -111.377051 98 38657ft 519kts
27-Aug-23 18:52 38.131294 -111.196071 99 38585ft 517kts
27-Aug-23 18:53 38.107112 -111.015489 99 38623ft 518kts
27-Aug-23 18:54 38.082560 -110.834355 99 38642ft 519kts
27-Aug-23 18:55 38.057816 -110.654203 99 38619ft 517kts
27-Aug-23 18:56 38.032892 -110.474599 98 38541ft 516kts
27-Aug-23 18:57 38.007635 -110.294750 99 38547ft 515kts
27-Aug-23 18:58 37.982264 -110.116002 99 38506ft 514kts
27-Aug-23 18:59 37.956602 -109.937290 99 38503ft 514kts
27-Aug-23 19:00 37.930668 -109.758699 99 38535ft 514kts
27-Aug-23 19:01 37.904387 -109.579774 99 37568ft 522kts
27-Aug-23 19:02 37.878183 -109.403431 100 35044ft 505kts
27-Aug-23 19:03 37.852852 -109.233359 101 32361ft 495kts
27-Aug-23 19:04 37.827827 -109.064932 101 29658ft 475kts
27-Aug-23 19:05 37.819098 -108.903508 76 27134ft 451kts
27-Aug-23 19:07 37.865278 -108.762156 64 25564ft 406kts
27-Aug-23 19:08 37.908399 -108.640356 64 25576ft 369kts
27-Aug-23 19:09 37.949907 -108.520619 65 25488ft 373kts
27-Aug-23 19:10 37.991442 -108.399153 65 22864ft 366kts
27-Aug-23 19:11 38.040999 -108.291975 27 20096ft 342kts
27-Aug-23 19:12 38.114431 -108.326380 300 17838ft 307kts
27-Aug-23 19:13 38.151758 -108.414506 299 17599ft 265kts
27-Aug-23 19:14 38.186053 -108.496910 300 15900ft 262kts
27-Aug-23 19:15 38.224693 -108.573146 334 14165ft 255kts
27-Aug-23 19:16 38.273079 -108.530334 73 12658ft 254kts
27-Aug-23 19:17 38.239938 -108.457650 139 12346ft 254kts
27-Aug-23 19:18 38.184452 -108.401077 141 12339ft 253kts
27-Aug-23 19:19 38.128376 -108.345834 141 12331ft 251kts
27-Aug-23 19:20 38.076648 -108.294898 141 12325ft 230kts
27-Aug-23 19:21 38.027541 -108.242888 122 12302ft 227kts
27-Aug-23 19:22 37.998485 -108.172465 103 12297ft 222kts
27-Aug-23 19:23 37.985336 -108.095920 98 12272ft 220kts
27-Aug-23 19:24 37.973050 -108.023556 101 11229ft 187kts
27-Aug-23 19:25 37.964603 -107.964506 100 9813ft 158kts
27-Aug-23 19:26 37.954506 -107.912090 104 9053ft 130kts
27-Aug-23 19:27 37.953427 -107.901683 287 9078ft 7kts
27-Aug-23 19:28 37.954391 -107.902442 10 9078ft 5kts
27-Aug-23 19:29 37.954561 -107.902718 281 9078ft 0kts
27-Aug-23 19:30 37.954561 -107.902718 281 9078ft 0kts
27-Aug-23 19:31 37.954561 -107.902718 281 9078ft 0kts
27-Aug-23 19:32 37.954561 -107.902718 281 9078ft 0kts

Navigation Log

Ident Type
Flight plan parsing failed, navigation log unavailable